| time (UTC) | temp F | wind direction | speed MPH | gust MPH | rain 1hr in | rain 24hr in | rain mn in | humidity % | barometer mb |
| 20260507000046 | 54 | 326 | 4.0 | 11.0 | 0.00 | 0.00 | 0.00 | 32 | 1015.7 |
| 20260506234548 | 54 | 326 | 0.0 | 6.0 | 0.00 | 0.00 | 0.00 | 33 | 1015.7 |
| 20260506233056 | 54 | 293 | 3.0 | 9.0 | 0.00 | 0.00 | 0.00 | 33 | 1015.9 |
| 20260506231542 | 54 | 314 | 4.0 | 9.0 | 0.00 | 0.00 | 0.00 | 32 | 1016.1 |
| 20260506230041 | 54 | 321 | 4.0 | 11.0 | 0.00 | 0.00 | 0.00 | 32 | 1016.2 |
| 20260506224541 | 54 | 305 | 5.0 | 11.0 | 0.00 | 0.00 | 0.00 | 32 | 1016.3 |
| 20260506223038 | 55 | 318 | 5.0 | 10.0 | 0.00 | 0.00 | 0.00 | 32 | 1016.2 |
| 20260506221538 | 54 | 283 | 4.0 | 11.0 | 0.00 | 0.00 | 0.00 | 33 | 1016.5 |
| 20260506220039 | 54 | 299 | 3.0 | 11.0 | 0.00 | 0.00 | 0.00 | 33 | 1016.6 |
| 20260506214537 | 53 | 334 | 3.0 | 7.0 | 0.00 | 0.00 | 0.00 | 35 | 1016.8 |
| 20260506213036 | 53 | 309 | 4.0 | 9.0 | 0.00 | 0.00 | 0.00 | 34 | 1016.9 |
| 20260506211535 | 54 | 300 | 4.0 | 10.0 | 0.00 | 0.00 | 0.00 | 35 | 1017.1 |
| 20260506210036 | 54 | 330 | 3.0 | 10.0 | 0.00 | 0.00 | 0.00 | 34 | 1017.3 |
| 20260506204535 | 53 | 274 | 5.0 | 13.0 | 0.00 | 0.00 | 0.00 | 36 | 1017.4 |
| 20260506203030 | 53 | 311 | 4.0 | 9.0 | 0.00 | 0.00 | 0.00 | 39 | 1017.7 |
| 20260506201533 | 52 | 350 | 4.0 | 10.0 | 0.00 | 0.00 | 0.00 | 36 | 1017.7 |
| 20260506200038 | 52 | 335 | 5.0 | 12.0 | 0.00 | 0.00 | 0.00 | 37 | 1018.1 |
| 20260506194528 | 52 | 351 | 5.0 | 11.0 | 0.00 | 0.00 | 0.00 | 36 | 1018.1 |
| 20260506193029 | 52 | 323 | 4.0 | 10.0 | 0.00 | 0.00 | 0.00 | 37 | 1018.2 |
| 20260506191526 | 52 | 335 | 5.0 | 11.0 | 0.00 | 0.00 | 0.00 | 38 | 1018.3 |
| 20260506190026 | 52 | 319 | 6.0 | 11.0 | 0.00 | 0.00 | 0.00 | 37 | 1018.5 |
| 20260506184525 | 52 | 305 | 5.0 | 10.0 | 0.00 | 0.00 | 0.00 | 38 | 1018.6 |
| 20260506183024 | 53 | 297 | 5.0 | 16.0 | 0.00 | 0.00 | 0.00 | 40 | 1018.8 |
| 20260506181520 | 51 | 322 | 4.0 | 12.0 | 0.00 | 0.00 | 0.00 | 40 | 1018.9 |
| 20260506180020 | 51 | 304 | 3.0 | 15.0 | 0.00 | 0.00 | 0.00 | 40 | 1019.0 |
| 20260506174518 | 50 | 342 | 4.0 | 12.0 | 0.00 | 0.00 | 0.00 | 42 | 1019.2 |
| 20260506173022 | 50 | 321 | 2.0 | 12.0 | 0.00 | 0.00 | 0.00 | 42 | 1019.2 |
| 20260506171514 | 49 | 352 | 7.0 | 16.0 | 0.00 | 0.00 | 0.00 | 41 | 1019.5 |
| 20260506170012 | 48 | 307 | 4.0 | 12.0 | 0.00 | 0.00 | 0.00 | 41 | 1019.4 |
| 20260506164514 | 48 | 317 | 4.0 | 11.0 | 0.00 | 0.00 | 0.00 | 41 | 1019.4 |
| 20260506163009 | 47 | 325 | 2.0 | 8.0 | 0.00 | 0.00 | 0.00 | 45 | 1019.5 |
| 20260506161508 | 46 | 335 | 3.0 | 10.0 | 0.00 | 0.00 | 0.00 | 47 | 1019.7 |
| 20260506160014 | 46 | 39 | 3.0 | 10.0 | 0.00 | 0.00 | 0.00 | 47 | 1019.6 |
| 20260506154507 | 47 | 303 | 3.0 | 12.0 | 0.00 | 0.00 | 0.00 | 46 | 1019.6 |
| 20260506153005 | 48 | 301 | 3.0 | 7.0 | 0.00 | 0.00 | 0.00 | 49 | 1019.5 |
| 20260506151502 | 46 | 303 | 3.0 | 10.0 | 0.00 | 0.00 | 0.00 | 52 | 1019.6 |
| 20260506150100 | 46 | 327 | 4.0 | 9.0 | 0.00 | 0.00 | 0.00 | 50 | 1019.7 |
| 20260506150002 | 46 | 356 | 3.0 | 9.0 | 0.00 | 0.00 | 0.00 | 51 | 1019.7 |
| 20260506144557 | 45 | 332 | 4.0 | 8.0 | 0.00 | 0.00 | 0.00 | 50 | 1019.8 |
| 20260506143054 | 44 | 304 | 3.0 | 8.0 | 0.00 | 0.00 | 0.00 | 52 | 1019.7 |
| 20260506141607 | 43 | 319 | 1.0 | 5.0 | 0.00 | 0.00 | 0.00 | 58 | 1019.8 |
| 20260506140047 | 42 | 346 | 1.0 | 3.0 | 0.00 | 0.00 | 0.00 | 60 | 1019.8 |
| 20260506134543 | 40 | 313 | 2.0 | 5.0 | 0.00 | 0.00 | 0.00 | 61 | 1019.7 |
| 20260506133039 | 39 | 321 | 2.0 | 6.0 | 0.00 | 0.00 | 0.00 | 65 | 1019.6 |
| 20260506131539 | 38 | 292 | 1.0 | 4.0 | 0.00 | 0.00 | 0.00 | 67 | 1019.5 |
| 20260506130039 | 36 | 345 | 2.0 | 6.0 | 0.00 | 0.00 | 0.00 | 67 | 1019.5 |
| 20260506124539 | 35 | 326 | 2.0 | 6.0 | 0.00 | 0.00 | 0.00 | 70 | 1019.3 |
| 20260506123040 | 33 | 313 | 2.0 | 5.0 | 0.00 | 0.00 | 0.00 | 71 | 1019.2 |
| 20260506121531 | 33 | 300 | 1.0 | 5.0 | 0.00 | 0.00 | 0.00 | 72 | 1019.0 |
| 20260506120037 | 32 | 304 | 0.0 | 4.0 | 0.00 | 0.00 | 0.00 | 72 | 1018.8 |
| 20260506114527 | 32 | 318 | 0.0 | 3.0 | 0.00 | 0.00 | 0.00 | 73 | 1018.4 |
| 20260506113026 | 32 | 329 | 0.0 | 2.0 | 0.00 | 0.00 | 0.00 | 72 | 1018.2 |
| 20260506111522 | 32 | 324 | 0.0 | 4.0 | 0.00 | 0.00 | 0.00 | 72 | 1018.0 |
| 20260506110025 | 32 | 302 | 0.0 | 5.0 | 0.00 | 0.00 | 0.00 | 71 | 1017.7 |
| 20260506104520 | 32 | 291 | 1.0 | 3.0 | 0.00 | 0.00 | 0.00 | 71 | 1017.7 |
| 20260506103027 | 33 | 321 | 1.0 | 5.0 | 0.00 | 0.00 | 0.00 | 70 | 1017.8 |
| 20260506101520 | 32 | 311 | 1.0 | 3.0 | 0.00 | 0.00 | 0.00 | 70 | 1017.8 |
| 20260506100014 | 32 | 300 | 0.0 | 2.0 | 0.00 | 0.00 | 0.00 | 71 | 1017.7 |
| 20260506094526 | 33 | 274 | 0.0 | 2.0 | 0.00 | 0.00 | 0.00 | 70 | 1017.7 |
| 20260506093008 | 32 | 274 | 0.0 | 1.0 | 0.00 | 0.00 | 0.00 | 70 | 1017.3 |
| 20260506091505 | 33 | 274 | 0.0 | 0.0 | 0.00 | 0.00 | 0.00 | 68 | 1017.4 |
| 20260506090002 | 34 | 293 | 0.0 | 3.0 | 0.00 | 0.00 | 0.00 | 67 | 1017.4 |
| 20260506084559 | 34 | 309 | 0.0 | 4.0 | 0.00 | 0.00 | 0.00 | 66 | 1017.1 |
| 20260506083057 | 34 | 311 | 0.0 | 4.0 | 0.00 | 0.00 | 0.00 | 65 | 1017.0 |
| 20260506081555 | 35 | 310 | 1.0 | 3.0 | 0.00 | 0.00 | 0.00 | 63 | 1016.8 |
| 20260506073053 | 36 | 317 | 0.0 | 1.0 | 0.00 | 0.00 | 0.00 | 62 | 1016.5 |
| 20260506071551 | 36 | 317 | 0.0 | 3.0 | 0.00 | 0.00 | 0.00 | 61 | 1016.9 |
| 20260506070105 | 37 | 317 | 0.0 | 2.0 | 0.00 | 0.00 | 0.00 | 60 | 1016.7 |
| 20260506061538 | 38 | 333 | 1.0 | 3.0 | 0.00 | 0.00 | 0.00 | 58 | 1016.8 |
| 20260506044525 | 40 | 333 | 0.0 | 4.0 | 0.00 | 0.00 | 0.00 | 54 | 1016.0 |
| 20260506043023 | 40 | 25 | 1.0 | 4.0 | 0.00 | 0.00 | 0.00 | 53 | 1016.0 |
| 20260506041521 | 41 | 349 | 1.0 | 4.0 | 0.00 | 0.00 | 0.00 | 52 | 1016.1 |
| 20260506040021 | 41 | 332 | 1.0 | 7.0 | 0.00 | 0.00 | 0.00 | 51 | 1016.1 |
| 20260506034520 | 42 | 20 | 1.0 | 6.0 | 0.00 | 0.00 | 0.00 | 50 | 1016.1 |
| 20260506033019 | 42 | 7 | 1.0 | 4.0 | 0.00 | 0.00 | 0.00 | 49 | 1015.9 |
| 20260506031519 | 43 | 352 | 2.0 | 7.0 | 0.00 | 0.00 | 0.00 | 48 | 1015.8 |
| 20260506030019 | 44 | 329 | 1.0 | 5.0 | 0.00 | 0.00 | 0.00 | 47 | 1015.8 |
| 20260506024515 | 44 | 322 | 2.0 | 6.0 | 0.00 | 0.00 | 0.00 | 46 | 1015.5 |
| 20260506023013 | 44 | 318 | 2.0 | 6.0 | 0.00 | 0.00 | 0.00 | 45 | 1015.4 |
| 20260506021511 | 45 | 25 | 2.0 | 6.0 | 0.00 | 0.00 | 0.00 | 44 | 1014.9 |
| 20260506020009 | 45 | 307 | 2.0 | 7.0 | 0.00 | 0.00 | 0.00 | 43 | 1014.6 |
| 20260506014511 | 46 | 359 | 2.0 | 6.0 | 0.00 | 0.00 | 0.00 | 42 | 1014.5 |
| 20260506013006 | 46 | 327 | 2.0 | 7.0 | 0.00 | 0.00 | 0.00 | 41 | 1014.5 |
| 20260506011504 | 47 | 4 | 3.0 | 7.0 | 0.00 | 0.00 | 0.00 | 39 | 1014.4 |
| 20260506010003 | 47 | 20 | 3.0 | 11.0 | 0.00 | 0.00 | 0.00 | 38 | 1014.2 |
| 20260506004501 | 48 | 354 | 3.0 | 10.0 | 0.00 | 0.00 | 0.00 | 38 | 1014.1 |
| 20260506003059 | 48 | 321 | 3.0 | 10.0 | 0.00 | 0.00 | 0.00 | 38 | 1014.0 |
| 20260506001601 | 49 | 1 | 3.0 | 12.0 | 0.00 | 0.00 | 0.00 | 37 | 1013.9 |